Time;durP1;ratioP1;P1;durP2;ratioP2;P2;SDS_P1;SDS_P2;PMS_P1;PMS_P2;Temp;Humidity;BMP_temperature;BMP_pressure;BME280_temperature;BME280_humidity;BME280_pressure;Samples;Min_cycle;Max_cycle;Signal;HPM_P1;HPM_P2
2023/10/03 00:00:38;;;;;;;12.15;6.82;;;;;;;;;;4834482;29;20474;-80
2023/10/03 00:03:23;;;;;;;14.00;6.70;;;;;;;;;;4831485;29;20053;-79
2023/10/03 00:06:09;;;;;;;15.50;6.57;;;;;;;;;;4827919;29;20486;-80
2023/10/03 00:08:54;;;;;;;12.75;6.80;;;;;;;;;;4828272;29;20037;-80
2023/10/03 00:11:40;;;;;;;13.60;7.05;;;;;;;;;;4834251;29;20046;-81
2023/10/03 00:14:26;;;;;;;13.10;6.88;;;;;;;;;;4820636;29;20401;-81
2023/10/03 00:17:12;;;;;;;11.57;6.57;;;;;;;;;;4840578;29;20466;-82
2023/10/03 00:19:57;;;;;;;15.57;6.53;;;;;;;;;;4839599;29;20054;-83
2023/10/03 00:22:44;;;;;;;11.85;6.60;;;;;;;;;;4839516;29;20045;-82
2023/10/03 00:25:30;;;;;;;13.80;6.45;;;;;;;;;;4838723;29;20393;-80
2023/10/03 00:28:15;;;;;;;15.75;6.57;;;;;;;;;;4832257;29;20045;-81
2023/10/03 00:31:09;;;;;;;13.15;6.38;;;;;;;;;;4831149;29;20486;-79
2023/10/03 00:33:55;;;;;;;13.18;6.25;;;;;;;;;;4837462;29;20049;-81
2023/10/03 00:36:41;;;;;;;11.88;6.35;;;;;;;;;;4823810;29;20477;-82
2023/10/03 00:39:27;;;;;;;13.02;6.65;;;;;;;;;;4832184;29;20406;-80
2023/10/03 00:42:12;;;;;;;15.40;6.78;;;;;;;;;;4831769;29;20045;-80
2023/10/03 00:44:57;;;;;;;13.25;6.47;;;;;;;;;;4824135;29;20405;-80
2023/10/03 00:47:43;;;;;;;16.10;7.22;;;;;;;;;;4838167;29;20064;-81
2023/10/03 00:50:31;;;;;;;13.88;6.47;;;;;;;;;;4823486;29;20458;-80
2023/10/03 00:53:17;;;;;;;11.85;6.82;;;;;;;;;;4831951;29;20045;-79
2023/10/03 00:56:08;;;;;;;11.77;6.45;;;;;;;;;;4837542;29;20049;-79
2023/10/03 00:58:53;;;;;;;14.75;6.82;;;;;;;;;;4831393;29;20053;-81
2023/10/03 01:01:38;;;;;;;12.35;6.82;;;;;;;;;;4837182;29;20053;-80
2023/10/03 01:04:30;;;;;;;11.70;6.75;;;;;;;;;;4831749;29;20442;-80
2023/10/03 01:07:16;;;;;;;14.82;6.40;;;;;;;;;;4831557;29;20037;-80
2023/10/03 01:10:04;;;;;;;16.30;7.25;;;;;;;;;;4823131;29;20049;-80
2023/10/03 01:12:54;;;;;;;11.10;7.13;;;;;;;;;;4831785;29;20041;-82
2023/10/03 01:15:40;;;;;;;15.98;7.07;;;;;;;;;;4831404;29;20465;-80
2023/10/03 01:18:27;;;;;;;14.07;7.55;;;;;;;;;;4823992;29;20049;-82
2023/10/03 01:21:13;;;;;;;15.40;7.07;;;;;;;;;;4823651;29;20049;-79
2023/10/03 01:23:59;;;;;;;17.83;7.60;;;;;;;;;;4831022;29;20037;-77
2023/10/03 01:26:44;;;;;;;14.05;7.13;;;;;;;;;;4815757;29;20042;-79
2023/10/03 01:29:30;;;;;;;20.48;7.20;;;;;;;;;;4830653;29;20041;-81
2023/10/03 01:32:15;;;;;;;13.48;7.85;;;;;;;;;;4822748;29;20401;-82
2023/10/03 01:35:08;;;;;;;14.30;8.65;;;;;;;;;;4837270;29;20053;-81
2023/10/03 01:37:53;;;;;;;12.05;7.05;;;;;;;;;;4830616;29;20457;-79
2023/10/03 01:40:39;;;;;;;20.05;9.27;;;;;;;;;;4830257;29;20045;-82
2023/10/03 01:43:26;;;;;;;14.90;8.25;;;;;;;;;;4836744;29;20057;-82
2023/10/03 01:46:12;;;;;;;15.10;7.90;;;;;;;;;;4830735;29;20042;-81
2023/10/03 01:48:57;;;;;;;14.90;7.72;;;;;;;;;;4830544;29;20057;-82
2023/10/03 01:51:43;;;;;;;18.80;8.60;;;;;;;;;;4822687;29;20046;-81
2023/10/03 01:54:28;;;;;;;16.45;7.78;;;;;;;;;;4831516;29;20054;-79
2023/10/03 01:57:14;;;;;;;13.48;7.13;;;;;;;;;;4836747;29;20402;-80
2023/10/03 01:59:59;;;;;;;10.85;6.78;;;;;;;;;;4823210;29;20041;-82
2023/10/03 02:02:45;;;;;;;15.82;7.53;;;;;;;;;;4818340;29;20054;-79
2023/10/03 02:05:39;;;;;;;18.30;8.90;;;;;;;;;;4836981;29;20049;-80
2023/10/03 02:08:25;;;;;;;15.40;8.85;;;;;;;;;;4822279;29;20406;-80
2023/10/03 02:11:12;;;;;;;20.92;9.80;;;;;;;;;;4827950;29;20042;-80
2023/10/03 02:13:59;;;;;;;12.68;7.80;;;;;;;;;;4827010;29;20473;-81
2023/10/03 02:16:46;;;;;;;22.65;9.52;;;;;;;;;;4833228;29;20409;-79
2023/10/03 02:19:32;;;;;;;15.82;9.05;;;;;;;;;;4817724;29;20474;-80
2023/10/03 02:22:19;;;;;;;12.70;7.05;;;;;;;;;;4826313;29;20053;-81
2023/10/03 02:25:05;;;;;;;11.07;7.00;;;;;;;;;;4826564;29;20470;-81
2023/10/03 02:27:53;;;;;;;13.23;7.25;;;;;;;;;;4831627;29;20049;-80
2023/10/03 02:30:38;;;;;;;14.50;7.00;;;;;;;;;;4825814;29;20061;-81
2023/10/03 02:33:23;;;;;;;15.80;7.43;;;;;;;;;;4825351;29;20478;-80
2023/10/03 02:36:10;;;;;;;12.82;6.68;;;;;;;;;;4825852;29;20438;-82
2023/10/03 02:38:56;;;;;;;15.00;7.28;;;;;;;;;;4817115;29;20418;-80
2023/10/03 02:41:41;;;;;;;15.10;6.35;;;;;;;;;;4817175;29;20458;-79
2023/10/03 02:44:27;;;;;;;13.30;6.32;;;;;;;;;;4825607;29;20046;-79
2023/10/03 02:47:12;;;;;;;15.85;6.85;;;;;;;;;;4818447;29;20058;-80
2023/10/03 02:49:59;;;;;;;12.95;6.85;;;;;;;;;;4824610;29;20041;-80
2023/10/03 02:52:47;;;;;;;15.60;7.13;;;;;;;;;;4825763;29;20486;-81
2023/10/03 02:55:33;;;;;;;12.75;7.35;;;;;;;;;;4831310;29;20057;-81
2023/10/03 02:58:20;;;;;;;11.75;7.00;;;;;;;;;;4825903;29;20050;-78
2023/10/03 03:01:05;;;;;;;12.45;7.10;;;;;;;;;;4817560;29;20037;-81
2023/10/03 03:03:52;;;;;;;15.82;7.40;;;;;;;;;;4812199;29;20462;-83
2023/10/03 03:06:40;;;;;;;12.93;6.70;;;;;;;;;;4816962;29;20049;-80
2023/10/03 03:09:27;;;;;;;11.63;6.75;;;;;;;;;;4816420;29;20045;-79
2023/10/03 03:12:12;;;;;;;13.55;7.15;;;;;;;;;;4824588;29;20045;-81
2023/10/03 03:14:58;;;;;;;11.15;6.97;;;;;;;;;;4817742;29;20069;-81
2023/10/03 03:17:45;;;;;;;12.48;6.57;;;;;;;;;;4831605;29;20411;-81
2023/10/03 03:20:40;;;;;;;11.65;7.57;;;;;;;;;;4830330;29;20058;-82
2023/10/03 03:23:36;;;;;;;12.50;6.80;;;;;;;;;;4824997;29;20049;-83
2023/10/03 03:26:22;;;;;;;13.10;6.90;;;;;;;;;;4831137;29;20458;-81
2023/10/03 03:29:20;;;;;;;16.98;6.38;;;;;;;;;;4830202;29;20053;-80
2023/10/03 03:32:04;;;;;;;12.82;7.28;;;;;;;;;;4829637;29;20493;-80
2023/10/03 03:34:50;;;;;;;15.52;7.60;;;;;;;;;;4830537;29;20057;-80
2023/10/03 03:37:38;;;;;;;11.98;7.30;;;;;;;;;;4824546;29;20482;-83
2023/10/03 03:40:33;;;;;;;17.88;8.07;;;;;;;;;;4830706;29;20401;-82
2023/10/03 03:43:21;;;;;;;15.52;7.00;;;;;;;;;;4831624;29;20057;-83
2023/10/03 03:46:08;;;;;;;21.38;8.00;;;;;;;;;;4830471;29;20056;-81
2023/10/03 03:48:54;;;;;;;16.60;8.95;;;;;;;;;;4823994;29;20490;-79
2023/10/03 03:51:40;;;;;;;45.92;12.68;;;;;;;;;;4829991;29;20402;-80
2023/10/03 03:54:26;;;;;;;63.88;14.35;;;;;;;;;;4830605;29;20475;-80
2023/10/03 03:57:11;;;;;;;54.38;16.20;;;;;;;;;;4824915;29;20414;-84
2023/10/03 03:59:56;;;;;;;62.97;19.10;;;;;;;;;;4824645;29;20067;-81
2023/10/03 04:02:42;;;;;;;77.28;22.20;;;;;;;;;;4829568;29;20061;-81
2023/10/03 04:05:29;;;;;;;84.47;22.02;;;;;;;;;;4830496;29;20053;-83
2023/10/03 04:08:15;;;;;;;95.03;21.13;;;;;;;;;;4824582;29;20060;-82
2023/10/03 04:11:02;;;;;;;66.97;19.52;;;;;;;;;;4831306;29;20406;-80
2023/10/03 04:13:53;;;;;;;28.30;12.25;;;;;;;;;;4829226;29;20041;-82
2023/10/03 04:16:40;;;;;;;23.83;11.10;;;;;;;;;;4817244;29;20045;-82
2023/10/03 04:19:25;;;;;;;19.73;11.10;;;;;;;;;;4829098;29;20045;-79
2023/10/03 04:22:10;;;;;;;19.30;10.88;;;;;;;;;;4822815;29;20057;-79
2023/10/03 04:24:56;;;;;;;23.33;10.57;;;;;;;;;;4813145;29;20045;-82
2023/10/03 04:27:42;;;;;;;18.73;10.32;;;;;;;;;;4822787;29;20402;-82
2023/10/03 04:30:27;;;;;;;19.92;11.45;;;;;;;;;;4829715;29;20049;-82
2023/10/03 04:33:20;;;;;;;24.08;13.07;;;;;;;;;;4830837;29;20399;-82
2023/10/03 04:36:09;;;;;;;39.60;12.15;;;;;;;;;;4831419;29;20402;-81
2023/10/03 04:38:54;;;;;;;36.83;11.98;;;;;;;;;;4824538;29;20050;-82
2023/10/03 04:41:43;;;;;;;36.00;10.60;;;;;;;;;;4829871;29;20057;-82
2023/10/03 04:44:29;;;;;;;43.30;10.77;;;;;;;;;;4829556;29;20406;-81
2023/10/03 04:47:14;;;;;;;21.98;10.73;;;;;;;;;;4823348;29;20053;-80
2023/10/03 04:50:00;;;;;;;25.13;10.45;;;;;;;;;;4829118;29;20474;-80
2023/10/03 04:52:48;;;;;;;25.17;11.13;;;;;;;;;;4809650;29;20050;-81
2023/10/03 04:55:34;;;;;;;18.10;10.63;;;;;;;;;;4809145;29;20406;-80
2023/10/03 04:58:21;;;;;;;17.73;10.15;;;;;;;;;;4830888;29;20401;-79
2023/10/03 05:01:07;;;;;;;17.90;9.80;;;;;;;;;;4825264;29;20053;-78
2023/10/03 05:03:53;;;;;;;18.67;9.73;;;;;;;;;;4829008;29;20465;-80
2023/10/03 05:06:40;;;;;;;14.00;9.57;;;;;;;;;;4832287;29;20768;-82
2023/10/03 05:09:30;;;;;;;16.60;9.85;;;;;;;;;;4832339;29;20058;-79
2023/10/03 05:12:16;;;;;;;15.73;9.82;;;;;;;;;;4831811;29;20057;-79
2023/10/03 05:15:03;;;;;;;17.90;10.10;;;;;;;;;;4818040;29;20049;-81
2023/10/03 05:17:49;;;;;;;16.67;8.73;;;;;;;;;;4833201;29;20049;-80
2023/10/03 05:20:37;;;;;;;17.92;8.32;;;;;;;;;;4831894;29;20053;-81
2023/10/03 05:23:23;;;;;;;14.70;9.15;;;;;;;;;;4830991;29;20053;-82
2023/10/03 05:26:08;;;;;;;12.27;8.13;;;;;;;;;;4825626;29;20042;-81
2023/10/03 05:28:55;;;;;;;17.23;9.10;;;;;;;;;;4826463;29;20382;-80
2023/10/03 05:31:41;;;;;;;17.92;8.27;;;;;;;;;;4826595;29;20049;-82
2023/10/03 05:34:30;;;;;;;11.98;8.25;;;;;;;;;;4832852;29;20049;-82
2023/10/03 05:37:16;;;;;;;14.82;7.22;;;;;;;;;;4833199;29;20072;-78
2023/10/03 05:40:15;;;;;;;13.80;7.05;;;;;;;;;;4826102;29;20080;-79
2023/10/03 05:43:05;;;;;;;11.25;6.88;;;;;;;;;;4832379;29;20468;-81
2023/10/03 05:45:51;;;;;;;11.43;7.07;;;;;;;;;;4827731;29;20482;-82
2023/10/03 05:48:36;;;;;;;14.80;7.32;;;;;;;;;;4827306;29;20057;-81
2023/10/03 05:51:23;;;;;;;11.88;7.10;;;;;;;;;;4832240;29;20050;-80
2023/10/03 05:54:08;;;;;;;12.20;6.15;;;;;;;;;;4826759;29;20462;-82
2023/10/03 05:56:55;;;;;;;13.48;6.63;;;;;;;;;;4813202;29;20676;-79
2023/10/03 05:59:42;;;;;;;12.95;6.70;;;;;;;;;;4817189;29;20062;-81
2023/10/03 06:02:27;;;;;;;12.00;6.10;;;;;;;;;;4825367;29;20481;-80
2023/10/03 06:05:16;;;;;;;14.82;6.57;;;;;;;;;;4832057;29;20066;-82
2023/10/03 06:08:01;;;;;;;13.65;6.95;;;;;;;;;;4836428;29;20473;-80
2023/10/03 06:10:49;;;;;;;13.20;6.55;;;;;;;;;;4836927;29;20045;-81
2023/10/03 06:13:35;;;;;;;10.93;6.25;;;;;;;;;;4835679;29;20050;-80
2023/10/03 06:16:21;;;;;;;14.18;7.03;;;;;;;;;;4835529;29;20394;-82
2023/10/03 06:19:08;;;;;;;16.38;6.90;;;;;;;;;;4837938;29;20489;-78
2023/10/03 06:21:53;;;;;;;12.25;6.05;;;;;;;;;;4836938;29;20057;-80
2023/10/03 06:24:39;;;;;;;10.82;6.38;;;;;;;;;;4836489;29;20049;-80
2023/10/03 06:27:26;;;;;;;10.10;6.78;;;;;;;;;;4836022;29;20414;-81
2023/10/03 06:30:14;;;;;;;14.68;6.82;;;;;;;;;;4835742;29;20049;-81
2023/10/03 06:32:59;;;;;;;10.90;6.25;;;;;;;;;;4835567;29;20045;-81
2023/10/03 06:35:45;;;;;;;11.60;6.78;;;;;;;;;;4835391;29;20481;-81
2023/10/03 06:38:31;;;;;;;13.73;7.05;;;;;;;;;;4829600;29;20053;-80
2023/10/03 06:41:19;;;;;;;12.95;7.03;;;;;;;;;;4829516;29;20410;-79
2023/10/03 06:44:04;;;;;;;12.40;6.25;;;;;;;;;;4835889;29;20050;-80
2023/10/03 06:46:50;;;;;;;14.00;5.85;;;;;;;;;;4835252;29;20049;-78
2023/10/03 06:49:36;;;;;;;9.63;5.85;;;;;;;;;;4836173;29;20076;-81
2023/10/03 06:52:21;;;;;;;14.38;6.57;;;;;;;;;;4829298;29;20041;-83
2023/10/03 06:55:11;;;;;;;12.65;7.07;;;;;;;;;;4836054;29;20454;-82
2023/10/03 06:57:57;;;;;;;14.10;7.07;;;;;;;;;;4816558;29;20050;-80
2023/10/03 07:00:42;;;;;;;13.75;6.57;;;;;;;;;;4835679;29;20402;-81
2023/10/03 07:03:29;;;;;;;11.32;6.25;;;;;;;;;;4831826;29;20046;-79
2023/10/03 07:06:14;;;;;;;15.02;6.80;;;;;;;;;;4835741;29;20049;-81
2023/10/03 07:09:03;;;;;;;14.13;6.65;;;;;;;;;;4821528;29;20405;-80
2023/10/03 07:11:49;;;;;;;10.90;6.50;;;;;;;;;;4835333;29;20466;-81
2023/10/03 07:14:38;;;;;;;14.95;7.07;;;;;;;;;;4833668;29;20049;-80
2023/10/03 07:17:23;;;;;;;16.67;7.15;;;;;;;;;;4830065;29;20514;-81
2023/10/03 07:20:10;;;;;;;16.88;7.25;;;;;;;;;;4830751;29;20050;-80
2023/10/03 07:22:57;;;;;;;11.15;6.63;;;;;;;;;;4816006;29;20430;-81
2023/10/03 07:25:42;;;;;;;14.57;7.30;;;;;;;;;;4830185;29;20053;-84
2023/10/03 07:28:27;;;;;;;14.43;7.47;;;;;;;;;;4830724;29;20053;-80
2023/10/03 07:31:14;;;;;;;14.45;7.40;;;;;;;;;;4829221;29;20480;-81
2023/10/03 07:34:00;;;;;;;12.10;7.60;;;;;;;;;;4830413;29;20050;-79
2023/10/03 07:36:45;;;;;;;12.80;7.70;;;;;;;;;;4830621;29;20468;-80
2023/10/03 07:39:30;;;;;;;15.27;7.57;;;;;;;;;;4824417;29;20045;-80
2023/10/03 07:42:17;;;;;;;18.25;8.07;;;;;;;;;;4823873;29;20472;-79
2023/10/03 07:45:04;;;;;;;10.70;6.93;;;;;;;;;;4832005;29;20053;-79
2023/10/03 07:47:50;;;;;;;13.80;7.07;;;;;;;;;;4816743;29;20462;-82
2023/10/03 07:50:40;;;;;;;13.40;7.20;;;;;;;;;;4830527;29;20057;-83
2023/10/03 07:53:29;;;;;;;18.30;7.55;;;;;;;;;;4816869;29;20045;-84
2023/10/03 07:56:25;;;;;;;15.63;7.05;;;;;;;;;;4824496;29;20049;-80
2023/10/03 07:59:11;;;;;;;12.15;6.90;;;;;;;;;;4825043;29;20042;-80
2023/10/03 08:01:57;;;;;;;17.98;7.15;;;;;;;;;;4823947;29;20502;-82
2023/10/03 08:04:45;;;;;;;20.30;7.70;;;;;;;;;;4829264;29;20053;-81
2023/10/03 08:07:31;;;;;;;11.90;6.90;;;;;;;;;;4825358;29;20049;-80
2023/10/03 08:10:17;;;;;;;14.77;7.40;;;;;;;;;;4830353;29;20473;-81
2023/10/03 08:13:03;;;;;;;13.90;6.95;;;;;;;;;;4830111;29;20062;-81
2023/10/03 08:15:50;;;;;;;16.30;8.60;;;;;;;;;;4823976;29;20481;-81
2023/10/03 08:18:46;;;;;;;17.15;7.22;;;;;;;;;;4830366;29;20054;-83
2023/10/03 08:21:31;;;;;;;12.75;7.32;;;;;;;;;;4830624;29;20053;-80
2023/10/03 08:24:19;;;;;;;14.88;7.45;;;;;;;;;;4816370;29;20470;-80
2023/10/03 08:27:04;;;;;;;17.05;7.93;;;;;;;;;;4816875;29;20049;-82
2023/10/03 08:29:51;;;;;;;16.27;7.95;;;;;;;;;;4830517;29;20050;-80
2023/10/03 08:32:39;;;;;;;13.15;6.97;;;;;;;;;;4823932;29;20049;-80
2023/10/03 08:35:34;;;;;;;13.63;6.68;;;;;;;;;;4830527;29;20050;-79
2023/10/03 08:38:19;;;;;;;18.55;7.32;;;;;;;;;;4833132;29;20050;-81
2023/10/03 08:41:05;;;;;;;14.50;7.47;;;;;;;;;;4828007;29;20049;-82
2023/10/03 08:43:55;;;;;;;18.38;7.30;;;;;;;;;;4833314;29;20401;-79
2023/10/03 08:46:48;;;;;;;14.38;7.30;;;;;;;;;;4833704;29;20046;-81
2023/10/03 08:49:38;;;;;;;15.87;6.90;;;;;;;;;;4827061;29;20046;-84
2023/10/03 08:52:39;;;;;;;14.45;7.88;;;;;;;;;;4833448;29;20501;-81
2023/10/03 08:55:26;;;;;;;13.55;7.28;;;;;;;;;;4826862;29;20402;-81
2023/10/03 08:58:18;;;;;;;15.07;6.57;;;;;;;;;;4820094;29;20466;-79
2023/10/03 09:01:07;;;;;;;16.45;6.72;;;;;;;;;;4833806;29;20050;-78
2023/10/03 09:03:58;;;;;;;19.95;7.38;;;;;;;;;;4827275;29;20049;-77
2023/10/03 09:06:44;;;;;;;15.63;7.80;;;;;;;;;;4833474;29;20486;-79
2023/10/03 09:09:31;;;;;;;13.23;6.80;;;;;;;;;;4832158;29;20409;-79
2023/10/03 09:12:20;;;;;;;13.50;6.82;;;;;;;;;;4832544;29;20410;-80
2023/10/03 09:15:09;;;;;;;12.85;6.97;;;;;;;;;;4819346;29;20045;-79
2023/10/03 09:17:56;;;;;;;14.02;7.22;;;;;;;;;;4833441;29;20473;-80
2023/10/03 09:20:42;;;;;;;11.85;7.03;;;;;;;;;;4826691;29;20049;-80
2023/10/03 09:23:37;;;;;;;13.38;6.70;;;;;;;;;;4833151;29;20061;-81
2023/10/03 09:26:22;;;;;;;14.80;6.68;;;;;;;;;;4833202;29;20497;-80
2023/10/03 09:29:09;;;;;;;16.00;7.25;;;;;;;;;;4826467;29;20041;-81
2023/10/03 09:31:59;;;;;;;16.90;6.90;;;;;;;;;;4826355;29;20049;-81
2023/10/03 09:34:46;;;;;;;16.13;7.55;;;;;;;;;;4832744;29;20454;-80
2023/10/03 09:37:32;;;;;;;11.02;6.65;;;;;;;;;;4831985;29;20397;-80
2023/10/03 09:40:18;;;;;;;19.70;6.97;;;;;;;;;;4832506;29;20051;-81
2023/10/03 09:43:11;;;;;;;17.23;7.40;;;;;;;;;;4827183;29;20053;-82
2023/10/03 09:46:00;;;;;;;12.27;6.15;;;;;;;;;;4819115;29;20053;-80
2023/10/03 09:48:51;;;;;;;17.00;7.03;;;;;;;;;;4832036;29;20058;-81
2023/10/03 09:51:46;;;;;;;13.20;6.30;;;;;;;;;;4832885;29;20482;-82
2023/10/03 09:54:33;;;;;;;13.70;6.45;;;;;;;;;;4831963;29;20057;-79
2023/10/03 09:57:18;;;;;;;18.17;6.90;;;;;;;;;;4818278;29;20050;-79
2023/10/03 10:00:23;;;;;;;13.45;6.40;;;;;;;;;;4832032;29;21273;-79
2023/10/03 10:03:12;;;;;;;13.18;6.22;;;;;;;;;;4826093;29;20053;-80
2023/10/03 10:06:13;;;;;;;11.88;6.10;;;;;;;;;;4818806;29;20493;-80
2023/10/03 10:09:14;;;;;;;18.23;7.05;;;;;;;;;;4832169;29;20529;-81
2023/10/03 10:12:15;;;;;;;14.77;6.70;;;;;;;;;;4831835;29;20038;-80
2023/10/03 10:15:00;;;;;;;18.95;7.35;;;;;;;;;;4831041;29;20050;-79
2023/10/03 10:17:54;;;;;;;15.10;6.57;;;;;;;;;;4823551;29;20045;-80
2023/10/03 10:20:43;;;;;;;16.33;6.60;;;;;;;;;;4825655;29;20058;-80
2023/10/03 10:23:35;;;;;;;15.63;7.07;;;;;;;;;;4826223;29;20502;-80
2023/10/03 10:26:30;;;;;;;13.50;6.38;;;;;;;;;;4831969;29;20405;-83
2023/10/03 10:29:21;;;;;;;16.73;6.88;;;;;;;;;;4831873;29;20493;-82
2023/10/03 10:32:19;;;;;;;15.32;6.72;;;;;;;;;;4825220;29;20049;-81
2023/10/03 10:35:43;;;;;;;15.68;6.60;;;;;;;;;;4832003;29;20116;-79
2023/10/03 10:38:32;;;;;;;16.45;6.95;;;;;;;;;;4831575;29;20057;-81
2023/10/03 10:41:27;;;;;;;11.70;6.65;;;;;;;;;;4831894;29;20418;-81
2023/10/03 10:44:13;;;;;;;14.07;6.35;;;;;;;;;;4831488;29;20462;-80
2023/10/03 10:47:05;;;;;;;14.40;6.70;;;;;;;;;;4831781;29;20054;-82
2023/10/03 10:49:55;;;;;;;14.07;6.93;;;;;;;;;;4824704;29;20417;-81
2023/10/03 10:52:54;;;;;;;12.45;6.90;;;;;;;;;;4824864;29;20501;-82
2023/10/03 10:55:39;;;;;;;13.52;7.10;;;;;;;;;;4830594;29;20050;-81
2023/10/03 10:58:24;;;;;;;14.13;6.55;;;;;;;;;;4830876;29;20477;-81
2023/10/03 11:01:12;;;;;;;13.13;7.05;;;;;;;;;;4831606;29;20050;-81
2023/10/03 11:03:57;;;;;;;11.60;6.55;;;;;;;;;;4827697;29;20057;-82
2023/10/03 11:06:49;;;;;;;13.07;6.50;;;;;;;;;;4831004;29;20402;-80
2023/10/03 11:09:38;;;;;;;12.57;5.90;;;;;;;;;;4825931;29;20447;-81
2023/10/03 11:12:25;;;;;;;14.68;6.20;;;;;;;;;;4825437;29;20045;-82
2023/10/03 11:15:12;;;;;;;15.60;6.78;;;;;;;;;;4831016;29;20045;-81
2023/10/03 11:17:58;;;;;;;14.13;6.82;;;;;;;;;;4830747;29;20053;-82
2023/10/03 11:20:44;;;;;;;14.13;6.93;;;;;;;;;;4830813;29;20506;-80
2023/10/03 11:23:29;;;;;;;13.85;7.15;;;;;;;;;;4824537;29;20041;-81
2023/10/03 11:26:14;;;;;;;13.77;7.18;;;;;;;;;;4830345;29;20453;-81
2023/10/03 11:29:00;;;;;;;11.40;6.40;;;;;;;;;;4816509;29;20463;-82
2023/10/03 11:31:45;;;;;;;14.05;6.43;;;;;;;;;;4825450;29;20038;-81
2023/10/03 11:34:34;;;;;;;12.73;6.60;;;;;;;;;;4816981;29;20417;-81
2023/10/03 11:37:30;;;;;;;13.95;7.57;;;;;;;;;;4825314;29;20057;-79
2023/10/03 11:40:18;;;;;;;12.18;6.90;;;;;;;;;;4830280;29;20466;-82
2023/10/03 11:43:07;;;;;;;15.68;7.70;;;;;;;;;;4830871;29;20045;-81
2023/10/03 11:45:56;;;;;;;13.93;6.78;;;;;;;;;;4830950;29;20481;-80
2023/10/03 11:48:41;;;;;;;13.57;6.80;;;;;;;;;;4830869;29;20397;-79
2023/10/03 11:51:29;;;;;;;13.60;6.85;;;;;;;;;;4831390;29;20061;-81
2023/10/03 11:54:15;;;;;;;17.38;6.55;;;;;;;;;;4824664;29;20041;-79
2023/10/03 11:57:00;;;;;;;15.90;6.10;;;;;;;;;;4825247;29;20426;-82
2023/10/03 11:59:45;;;;;;;12.45;6.20;;;;;;;;;;4833642;29;20057;-81
2023/10/03 12:02:31;;;;;;;13.68;6.82;;;;;;;;;;4825603;29;20049;-81
2023/10/03 12:05:16;;;;;;;11.25;5.97;;;;;;;;;;4833128;29;20401;-81
2023/10/03 12:08:03;;;;;;;12.20;5.93;;;;;;;;;;4830836;29;20470;-82
2023/10/03 12:10:49;;;;;;;11.95;6.20;;;;;;;;;;4831665;29;20406;-82
2023/10/03 12:13:36;;;;;;;10.80;6.57;;;;;;;;;;4834474;29;20056;-80
2023/10/03 12:16:22;;;;;;;10.90;6.10;;;;;;;;;;4827752;29;20049;-82
2023/10/03 12:19:08;;;;;;;13.23;6.10;;;;;;;;;;4831969;29;20054;-81
2023/10/03 12:21:54;;;;;;;12.60;6.05;;;;;;;;;;4838457;29;20041;-81
2023/10/03 12:24:40;;;;;;;11.15;5.80;;;;;;;;;;4832545;29;20041;-83
2023/10/03 12:27:26;;;;;;;10.68;6.03;;;;;;;;;;4837986;29;20045;-81
2023/10/03 12:30:15;;;;;;;14.35;6.55;;;;;;;;;;4832441;29;20466;-81
2023/10/03 12:33:00;;;;;;;12.55;6.28;;;;;;;;;;4831901;29;21325;-81
2023/10/03 12:35:47;;;;;;;16.67;6.60;;;;;;;;;;4837990;29;20046;-83
2023/10/03 12:38:31;;;;;;;10.10;6.05;;;;;;;;;;4824565;29;20405;-80
2023/10/03 12:41:17;;;;;;;11.60;6.03;;;;;;;;;;4824528;29;20691;-82
2023/10/03 12:44:02;;;;;;;15.73;6.95;;;;;;;;;;4805326;29;20061;-82
2023/10/03 12:46:49;;;;;;;14.82;6.45;;;;;;;;;;4832059;29;20041;-82
2023/10/03 12:49:35;;;;;;;12.75;6.40;;;;;;;;;;4832264;29;20046;-80
2023/10/03 12:52:20;;;;;;;15.05;6.50;;;;;;;;;;4838423;29;20462;-81
2023/10/03 12:55:07;;;;;;;15.35;6.20;;;;;;;;;;4838570;29;20414;-82
2023/10/03 12:57:54;;;;;;;14.00;5.97;;;;;;;;;;4838015;29;20041;-82
2023/10/03 13:00:42;;;;;;;19.17;6.72;;;;;;;;;;4837069;29;20053;-82
2023/10/03 13:03:29;;;;;;;12.77;6.00;;;;;;;;;;4832176;29;20053;-81
2023/10/03 13:06:15;;;;;;;12.85;6.13;;;;;;;;;;4831768;29;20062;-81
2023/10/03 13:09:00;;;;;;;12.60;6.30;;;;;;;;;;4837312;29;20424;-82
2023/10/03 13:11:46;;;;;;;11.35;5.57;;;;;;;;;;4837740;29;20050;-80
2023/10/03 13:14:32;;;;;;;11.27;5.80;;;;;;;;;;4831336;29;20486;-81
2023/10/03 13:17:18;;;;;;;12.25;5.78;;;;;;;;;;4838069;29;20058;-81
2023/10/03 13:20:06;;;;;;;14.30;6.53;;;;;;;;;;4837696;29;20061;-81
2023/10/03 13:22:53;;;;;;;13.45;5.85;;;;;;;;;;4829846;29;20061;-80
2023/10/03 13:25:39;;;;;;;10.93;5.80;;;;;;;;;;4837747;29;20462;-80
2023/10/03 13:28:25;;;;;;;11.82;6.15;;;;;;;;;;4837327;29;20397;-82
2023/10/03 13:31:10;;;;;;;10.88;5.30;;;;;;;;;;4831712;29;20049;-82
2023/10/03 13:33:57;;;;;;;18.15;5.45;;;;;;;;;;4830902;29;20481;-79
2023/10/03 13:36:43;;;;;;;12.40;5.75;;;;;;;;;;4836541;29;20406;-82
2023/10/03 13:39:29;;;;;;;11.60;5.78;;;;;;;;;;4829503;29;20828;-81
2023/10/03 13:42:15;;;;;;;12.88;5.22;;;;;;;;;;4836636;29;20404;-80
2023/10/03 13:45:01;;;;;;;11.40;5.85;;;;;;;;;;4831154;29;20446;-81
2023/10/03 13:47:47;;;;;;;11.85;5.72;;;;;;;;;;4831769;29;20061;-80
2023/10/03 13:50:35;;;;;;;10.80;4.90;;;;;;;;;;4837949;29;20049;-81
2023/10/03 13:53:20;;;;;;;12.70;5.38;;;;;;;;;;4831142;29;20447;-81
2023/10/03 13:56:06;;;;;;;10.80;5.35;;;;;;;;;;4838509;29;20470;-82
2023/10/03 13:58:52;;;;;;;10.40;5.47;;;;;;;;;;4831828;29;20045;-80
2023/10/03 14:01:37;;;;;;;10.10;5.93;;;;;;;;;;4831274;29;20046;-81
2023/10/03 14:04:23;;;;;;;8.85;5.40;;;;;;;;;;4832003;29;20057;-80
2023/10/03 14:07:08;;;;;;;10.43;5.18;;;;;;;;;;4830806;29;20050;-81
2023/10/03 14:09:54;;;;;;;13.05;4.95;;;;;;;;;;4836438;29;20049;-81
2023/10/03 14:12:40;;;;;;;12.07;5.55;;;;;;;;;;4829436;29;20050;-80
2023/10/03 14:15:29;;;;;;;9.82;5.85;;;;;;;;;;4836238;29;20478;-81
2023/10/03 14:18:15;;;;;;;15.88;5.75;;;;;;;;;;4830356;29;20041;-80
2023/10/03 14:21:09;;;;;;;9.95;5.50;;;;;;;;;;4829523;29;20405;-84
2023/10/03 14:23:55;;;;;;;14.07;5.80;;;;;;;;;;4836436;29;20462;-82
2023/10/03 14:26:40;;;;;;;12.50;5.38;;;;;;;;;;4835182;29;20061;-80
2023/10/03 14:29:26;;;;;;;12.73;5.35;;;;;;;;;;4835548;29;20402;-80
2023/10/03 14:32:14;;;;;;;13.02;5.68;;;;;;;;;;4835425;29;20478;-80
2023/10/03 14:34:59;;;;;;;11.70;5.85;;;;;;;;;;4835048;29;20398;-80
2023/10/03 14:37:47;;;;;;;11.85;4.90;;;;;;;;;;4829856;29;20049;-80
2023/10/03 14:40:32;;;;;;;11.55;5.70;;;;;;;;;;4829987;29;20046;-80
2023/10/03 14:43:17;;;;;;;10.90;5.28;;;;;;;;;;4835926;29;20397;-81
2023/10/03 14:46:02;;;;;;;11.77;5.60;;;;;;;;;;4829824;29;20041;-81
2023/10/03 14:48:48;;;;;;;12.73;5.45;;;;;;;;;;4835703;29;20137;-81
2023/10/03 14:51:35;;;;;;;13.25;6.05;;;;;;;;;;4835774;29;21380;-79
2023/10/03 14:54:21;;;;;;;13.70;6.07;;;;;;;;;;4828597;29;20446;-79
2023/10/03 14:57:07;;;;;;;10.32;5.35;;;;;;;;;;4835446;29;20050;-82
2023/10/03 14:59:54;;;;;;;10.85;5.15;;;;;;;;;;4835269;29;20072;-82
2023/10/03 15:02:39;;;;;;;10.15;5.22;;;;;;;;;;4833461;29;20054;-79
2023/10/03 15:05:24;;;;;;;9.75;5.30;;;;;;;;;;4835329;29;20490;-82
2023/10/03 15:08:11;;;;;;;12.43;5.60;;;;;;;;;;4835880;29;20419;-83
2023/10/03 15:11:04;;;;;;;13.52;6.60;;;;;;;;;;4836321;29;20053;-82
2023/10/03 15:13:49;;;;;;;18.27;7.60;;;;;;;;;;4834955;29;20473;-82
2023/10/03 15:16:35;;;;;;;14.32;6.63;;;;;;;;;;4835299;29;20490;-81
2023/10/03 15:19:20;;;;;;;11.38;6.50;;;;;;;;;;4821088;29;20507;-79
2023/10/03 15:22:11;;;;;;;12.07;5.70;;;;;;;;;;4814941;29;20046;-82
2023/10/03 15:24:55;;;;;;;15.52;5.65;;;;;;;;;;4835514;29;20045;-79
2023/10/03 15:27:45;;;;;;;14.63;5.63;;;;;;;;;;4834764;29;20053;-80
2023/10/03 15:30:30;;;;;;;16.80;5.60;;;;;;;;;;4834691;29;20413;-79
2023/10/03 15:33:15;;;;;;;10.38;5.55;;;;;;;;;;4834975;29;20046;-78
2023/10/03 15:36:01;;;;;;;12.23;5.85;;;;;;;;;;4829026;29;20478;-80
2023/10/03 15:38:46;;;;;;;17.10;5.95;;;;;;;;;;4821716;29;20045;-79
2023/10/03 15:41:33;;;;;;;12.75;5.88;;;;;;;;;;4834723;29;20045;-82
2023/10/03 15:44:18;;;;;;;12.05;5.68;;;;;;;;;;4821346;29;20087;-83
2023/10/03 15:47:05;;;;;;;13.68;5.55;;;;;;;;;;4828415;29;20117;-80
2023/10/03 15:49:50;;;;;;;14.27;6.03;;;;;;;;;;4829583;29;20474;-82
2023/10/03 15:52:35;;;;;;;13.30;6.07;;;;;;;;;;4810689;29;20045;-84
2023/10/03 15:55:21;;;;;;;17.15;6.13;;;;;;;;;;4836354;29;20050;-85
2023/10/03 15:58:07;;;;;;;15.70;6.97;;;;;;;;;;4837592;29;20053;-81
2023/10/03 16:00:52;;;;;;;22.10;7.55;;;;;;;;;;4837412;29;20402;-83
2023/10/03 16:03:40;;;;;;;20.75;8.30;;;;;;;;;;4831794;29;20061;-79
2023/10/03 16:06:25;;;;;;;23.05;6.90;;;;;;;;;;4833320;29;20485;-82
2023/10/03 16:09:14;;;;;;;14.32;5.97;;;;;;;;;;4830578;29;20042;-80
2023/10/03 16:12:01;;;;;;;17.65;6.55;;;;;;;;;;4829669;29;20042;-81
2023/10/03 16:14:46;;;;;;;19.52;6.43;;;;;;;;;;4814263;29;20402;-78
2023/10/03 16:17:32;;;;;;;15.40;6.55;;;;;;;;;;4834353;29;20050;-80
2023/10/03 16:20:20;;;;;;;15.55;6.78;;;;;;;;;;4835082;29;20470;-81
2023/10/03 16:23:09;;;;;;;22.23;7.88;;;;;;;;;;4833852;29;20061;-85
2023/10/03 16:25:54;;;;;;;18.50;7.88;;;;;;;;;;4813891;29;20049;-81